NGX weather

Manang Airport
Ngawal, Gandaki, Nepal

Public forecast

Using degrees Celsius for public forecast. Weather courtesy of forecast.io.

METAR (pilot weather report)

Closest report is Tribhuvan International Airport, 88.0 nm (162.9 km) SE. Retrieved 2019/07/20 02:20 UTC (0 seconds ago):

VNKT 200220Z 16003KT 5000 DZ FEW008 FEW025CB SCT030 BKN100 22/22 Q1014 NOSIG CB TO SE S SW NW N NE AND E

TAF (pilot weather forecast)

Forecast is more than 12 hours old.

Closest forecast is Tribhuvan International Airport, 88.0 nm (162.9 km) SE. Retrieved 2019/07/18 12:48 UTC (2 days ago):

TAF TAF VNKT 181100Z 1812/1912 19005KT 8000 FEW015 SCT030 BKN100 PROB40 1813/1819 4000 RA/SHRA BECMG 1900/1902 VRB02KT 6000 FEW010 SCT100 BECMG 1904/1905 16005KT FEW015 SCT030 PROB40 1906/1912 VRB10KT 4000 -RA/TSRA FEW025CB BKN100 BECMG 1907/1909 22008KT 8000 FEW020 SCT030 BKN100